^^
Saratoga-Weather Station Historical Data
Daily Summary for September 11, 2021 Units:  Both    English   Metric
Daily Weekly Monthly Yearly Custom
  High: Low: Average:
Temperature: 64.8 °F /  18.2 °C 62.1 °F /  16.7 °C 63.3 °F /  17.4 °C
Dew Point: 61.7 °F /  16.5 °C 60.3 °F /  15.7 °C 61 °F /  16.1 °C
Humidity: 94% 87% 92%
Wind Speed: 0mph /  0km/h - 0mph /  0km/h
Wind Gust: 1mph /  1.6km/h - -
Wind- -
Pressure: 30.1 in /  1017.6 hPa 30 in /  1017.3 hPa -
Precipitation: 0 in /  0.0 mm    
Historical Graphs
 
 
Tabular Data for September 11, 2021
Time Temperature Dew Point Pressure Wind Wind Speed Wind Gust Humidity Rainfall Rate (Hourly) solar
00:04 64.8 °F /  18.2 °C 60.8 °F /  16 °C 30in /  1017.3hPa Calm     87% 0in /  0.0mm 0 W/m2
00:09 64.8 °F /  18.2 °C 60.8 °F /  16 °C 30in /  1017.3hPa Calm     87% 0in /  0.0mm 0 W/m2
00:14 64.8 °F /  18.2 °C 60.8 °F /  16 °C 30in /  1017.3hPa Calm     87% 0in /  0.0mm 0 W/m2
00:19 64.6 °F /  18.1 °C 60.6 °F /  15.9 °C 30in /  1017.3hPa Calm     87% 0in /  0.0mm 0 W/m2
00:24 64.6 °F /  18.1 °C 60.6 °F /  15.9 °C 30in /  1017.3hPa Calm     87% 0in /  0.0mm 0 W/m2
00:29 64.6 °F /  18.1 °C 61 °F /  16.1 °C 30in /  1017.3hPa Calm     88% 0in /  0.0mm 0 W/m2
00:34 64.4 °F /  18 °C 60.8 °F /  16 °C 30in /  1017.3hPa Calm     88% 0in /  0.0mm 0 W/m2
00:39 64.2 °F /  17.9 °C 60.6 °F /  15.9 °C 30in /  1017.3hPa Calm     88% 0in /  0.0mm 0 W/m2
00:44 64.2 °F /  17.9 °C 60.6 °F /  15.9 °C 30in /  1017.3hPa Calm     88% 0in /  0.0mm 0 W/m2
00:49 64.2 °F /  17.9 °C 60.6 °F /  15.9 °C 30in /  1017.3hPa Calm     88% 0in /  0.0mm 0 W/m2
00:54 64.2 °F /  17.9 °C 60.6 °F /  15.9 °C 30in /  1017.3hPa Calm     88% 0in /  0.0mm 0 W/m2
00:59 64 °F /  17.8 °C 60.4 °F /  15.8 °C 30in /  1017.3hPa Calm     88% 0in /  0.0mm 0 W/m2
01:04 64 °F /  17.8 °C 60.4 °F /  15.8 °C 30in /  1017.3hPa Calm     88% 0in /  0.0mm 0 W/m2
01:09 64 °F /  17.8 °C 60.8 °F /  16 °C 30in /  1017.3hPa Calm     89% 0in /  0.0mm 0 W/m2
01:14 64 °F /  17.8 °C 60.8 °F /  16 °C 30in /  1017.3hPa Calm     89% 0in /  0.0mm 0 W/m2
01:19 64 °F /  17.8 °C 60.8 °F /  16 °C 30in /  1017.3hPa Calm     89% 0in /  0.0mm 0 W/m2
01:24 64 °F /  17.8 °C 60.8 °F /  16 °C 30in /  1017.3hPa Calm   1mph /  1.6km/h 89% 0in /  0.0mm 0 W/m2
01:29 64 °F /  17.8 °C 60.8 °F /  16 °C 30in /  1017.3hPa Calm     89% 0in /  0.0mm 0 W/m2
01:34 64 °F /  17.8 °C 61 °F /  16.1 °C 30.1in /  1017.6hPa Calm     90% 0in /  0.0mm 0 W/m2
01:39 64 °F /  17.8 °C 61 °F /  16.1 °C 30.1in /  1017.6hPa Calm     90% 0in /  0.0mm 0 W/m2
01:44 64 °F /  17.8 °C 61 °F /  16.1 °C 30.1in /  1017.6hPa Calm     90% 0in /  0.0mm 0 W/m2
01:49 64 °F /  17.8 °C 61 °F /  16.1 °C 30.1in /  1017.6hPa Calm     90% 0in /  0.0mm 0 W/m2
01:54 64 °F /  17.8 °C 61 °F /  16.1 °C 30in /  1017.3hPa Calm     90% 0in /  0.0mm 0 W/m2
01:59 64 °F /  17.8 °C 61 °F /  16.1 °C 30in /  1017.3hPa Calm     90% 0in /  0.0mm 0 W/m2
02:04 64 °F /  17.8 °C 61.3 °F /  16.3 °C 30in /  1017.3hPa Calm     91% 0in /  0.0mm 0 W/m2
02:09 63.9 °F /  17.7 °C 61.2 °F /  16.2 °C 30in /  1017.3hPa Calm     91% 0in /  0.0mm 0 W/m2
02:14 63.9 °F /  17.7 °C 61.2 °F /  16.2 °C 30in /  1017.3hPa Calm     91% 0in /  0.0mm 0 W/m2
02:19 63.7 °F /  17.6 °C 61.3 °F /  16.3 °C 30in /  1017.3hPa Calm     92% 0in /  0.0mm 0 W/m2
02:24 63.7 °F /  17.6 °C 61.3 °F /  16.3 °C 30in /  1017.3hPa Calm     92% 0in /  0.0mm 0 W/m2
02:29 63.7 °F /  17.6 °C 61.3 °F /  16.3 °C 30in /  1017.3hPa Calm     92% 0in /  0.0mm 0 W/m2
02:34 63.7 °F /  17.6 °C 61.3 °F /  16.3 °C 30in /  1017.3hPa Calm     92% 0in /  0.0mm 0 W/m2
02:39 63.7 °F /  17.6 °C 61.3 °F /  16.3 °C 30.1in /  1017.6hPa Calm     92% 0in /  0.0mm 0 W/m2
02:44 63.7 °F /  17.6 °C 61.7 °F /  16.5 °C 30.1in /  1017.6hPa Calm     93% 0in /  0.0mm 0 W/m2
02:49 63.7 °F /  17.6 °C 61.7 °F /  16.5 °C 30.1in /  1017.6hPa Calm     93% 0in /  0.0mm 0 W/m2
02:54 63.7 °F /  17.6 °C 61.7 °F /  16.5 °C 30.1in /  1017.6hPa Calm     93% 0in /  0.0mm 0 W/m2
02:59 63.7 °F /  17.6 °C 61.7 °F /  16.5 °C 30.1in /  1017.6hPa Calm     93% 0in /  0.0mm 0 W/m2
03:04 63.5 °F /  17.5 °C 61.5 °F /  16.4 °C 30.1in /  1017.6hPa Calm     93% 0in /  0.0mm 0 W/m2
03:10 63.5 °F /  17.5 °C 61.5 °F /  16.4 °C 30.1in /  1017.6hPa Calm     93% 0in /  0.0mm 0 W/m2
03:15 63.5 °F /  17.5 °C 61.5 °F /  16.4 °C 30.1in /  1017.6hPa Calm     93% 0in /  0.0mm 0 W/m2
03:20 63.3 °F /  17.4 °C 61.3 °F /  16.3 °C 30.1in /  1017.6hPa Calm     93% 0in /  0.0mm 0 W/m2
03:25 63.3 °F /  17.4 °C 61.3 °F /  16.3 °C 30.1in /  1017.6hPa Calm     93% 0in /  0.0mm 0 W/m2
03:30 63.3 °F /  17.4 °C 61.3 °F /  16.3 °C 30.1in /  1017.6hPa Calm     93% 0in /  0.0mm 0 W/m2
03:35 63.1 °F /  17.3 °C 61.2 °F /  16.2 °C 30in /  1017.3hPa Calm     93% 0in /  0.0mm 0 W/m2
03:40 63.1 °F /  17.3 °C 61.2 °F /  16.2 °C 30in /  1017.3hPa Calm     93% 0in /  0.0mm 0 W/m2
03:45 63.1 °F /  17.3 °C 61.2 °F /  16.2 °C 30in /  1017.3hPa Calm     93% 0in /  0.0mm 0 W/m2
03:50 63 °F /  17.2 °C 61 °F /  16.1 °C 30in /  1017.3hPa Calm     93% 0in /  0.0mm 0 W/m2
03:55 63 °F /  17.2 °C 61 °F /  16.1 °C 30in /  1017.3hPa Calm     93% 0in /  0.0mm 0 W/m2
04:00 63 °F /  17.2 °C 61 °F /  16.1 °C 30in /  1017.3hPa Calm     93% 0in /  0.0mm 0 W/m2
04:05 63 °F /  17.2 °C 61 °F /  16.1 °C 30in /  1017.3hPa Calm     93% 0in /  0.0mm 0 W/m2
04:10 63 °F /  17.2 °C 61 °F /  16.1 °C 30in /  1017.3hPa Calm     93% 0in /  0.0mm 0 W/m2
04:15 63 °F /  17.2 °C 61 °F /  16.1 °C 30.1in /  1017.6hPa Calm     93% 0in /  0.0mm 0 W/m2
04:20 63 °F /  17.2 °C 61 °F /  16.1 °C 30.1in /  1017.6hPa Calm     93% 0in /  0.0mm 0 W/m2
04:25 63 °F /  17.2 °C 61 °F /  16.1 °C 30.1in /  1017.6hPa Calm     93% 0in /  0.0mm 0 W/m2
04:30 63 °F /  17.2 °C 61 °F /  16.1 °C 30.1in /  1017.6hPa Calm     93% 0in /  0.0mm 0 W/m2
04:35 63 °F /  17.2 °C 61.2 °F /  16.2 °C 30.1in /  1017.6hPa Calm     94% 0in /  0.0mm 0 W/m2
04:40 63 °F /  17.2 °C 61.2 °F /  16.2 °C 30.1in /  1017.6hPa Calm     94% 0in /  0.0mm 0 W/m2
04:45 62.8 °F /  17.1 °C 61 °F /  16.1 °C 30.1in /  1017.6hPa Calm     94% 0in /  0.0mm 0 W/m2
04:50 62.8 °F /  17.1 °C 61 °F /  16.1 °C 30in /  1017.3hPa Calm     94% 0in /  0.0mm 0 W/m2
04:55 62.8 °F /  17.1 °C 61 °F /  16.1 °C 30in /  1017.3hPa Calm     94% 0in /  0.0mm 0 W/m2
05:00 62.8 °F /  17.1 °C 61 °F /  16.1 °C 30in /  1017.3hPa Calm     94% 0in /  0.0mm 0 W/m2
05:05 62.8 °F /  17.1 °C 61 °F /  16.1 °C 30in /  1017.3hPa Calm     94% 0in /  0.0mm 0 W/m2
05:10 62.6 °F /  17 °C 60.8 °F /  16 °C 30in /  1017.3hPa Calm     94% 0in /  0.0mm 0 W/m2
05:15 62.6 °F /  17 °C 60.8 °F /  16 °C 30in /  1017.3hPa Calm     94% 0in /  0.0mm 0 W/m2
05:20 62.6 °F /  17 °C 60.8 °F /  16 °C 30in /  1017.3hPa Calm     94% 0in /  0.0mm 0 W/m2
05:25 62.4 °F /  16.9 °C 60.6 °F /  15.9 °C 30.1in /  1017.6hPa Calm     94% 0in /  0.0mm 0 W/m2
05:30 62.4 °F /  16.9 °C 60.6 °F /  15.9 °C 30.1in /  1017.6hPa Calm     94% 0in /  0.0mm 0 W/m2
05:35 62.4 °F /  16.9 °C 60.6 °F /  15.9 °C 30in /  1017.3hPa Calm     94% 0in /  0.0mm 0 W/m2
05:40 62.4 °F /  16.9 °C 60.6 °F /  15.9 °C 30.1in /  1017.6hPa Calm     94% 0in /  0.0mm 0 W/m2
05:45 62.4 °F /  16.9 °C 60.6 °F /  15.9 °C 30.1in /  1017.6hPa Calm     94% 0in /  0.0mm 0 W/m2
05:50 62.2 °F /  16.8 °C 60.4 °F /  15.8 °C 30.1in /  1017.6hPa Calm     94% 0in /  0.0mm 0 W/m2
05:55 62.2 °F /  16.8 °C 60.4 °F /  15.8 °C 30.1in /  1017.6hPa Calm     94% 0in /  0.0mm 0 W/m2
06:00 62.2 °F /  16.8 °C 60.4 °F /  15.8 °C 30.1in /  1017.6hPa Calm     94% 0in /  0.0mm 0 W/m2
06:05 62.2 °F /  16.8 °C 60.4 °F /  15.8 °C 30.1in /  1017.6hPa Calm     94% 0in /  0.0mm 0 W/m2
06:10 62.2 °F /  16.8 °C 60.4 °F /  15.8 °C 30.1in /  1017.6hPa Calm     94% 0in /  0.0mm 0 W/m2
06:15 62.2 °F /  16.8 °C 60.4 °F /  15.8 °C 30.1in /  1017.6hPa Calm     94% 0in /  0.0mm 0 W/m2
06:20 62.1 °F /  16.7 °C 60.3 °F /  15.7 °C 30.1in /  1017.6hPa Calm     94% 0in /  0.0mm 0 W/m2
Juneau County Weather
Compliments of Weather Underground - 2 mb